createdAt,value
2023-01-29T00:00:05.042Z,1.04
2023-01-29T00:01:05.151Z,1.04
2023-01-29T00:02:05.319Z,1.04
2023-01-29T00:03:05.490Z,1.04
2023-01-29T00:04:05.560Z,1.04
2023-01-29T00:05:20.979Z,1.04
2023-01-29T00:06:05.816Z,1.04
2023-01-29T00:07:05.909Z,1.04
2023-01-29T00:08:06.147Z,1.04
2023-01-29T00:09:06.165Z,1.04
2023-01-29T00:10:06.314Z,1.04
2023-01-29T00:11:06.442Z,1.04
2023-01-29T00:12:06.573Z,1.04
2023-01-29T00:13:06.677Z,1.04
2023-01-29T00:14:06.817Z,1.04
2023-01-29T00:15:06.973Z,1.04
2023-01-29T00:16:07.129Z,1.04
2023-01-29T00:17:07.298Z,1.04
2023-01-29T00:18:07.369Z,1.04
2023-01-29T00:19:07.479Z,1.04
2023-01-29T00:20:07.591Z,1.04
2023-01-29T00:21:07.682Z,1.04
2023-01-29T00:22:07.838Z,1.04
2023-01-29T00:23:07.943Z,1.04
2023-01-29T00:24:08.113Z,1.04
2023-01-29T00:25:08.153Z,1.04
2023-01-29T00:26:08.277Z,1.04
2023-01-29T00:27:08.374Z,1.04
2023-01-29T00:28:08.535Z,1.04
2023-01-29T00:29:08.689Z,1.04
2023-01-29T00:30:08.801Z,1.04
2023-01-29T00:31:09.035Z,1.04
2023-01-29T00:32:09.326Z,1.04
2023-01-29T00:33:09.218Z,1.04
2023-01-29T00:34:09.344Z,1.04
2023-01-29T00:35:09.516Z,1.04
2023-01-29T00:36:09.610Z,1.04
2023-01-29T00:37:09.709Z,1.04
2023-01-29T00:38:09.848Z,1.04
2023-01-29T00:39:09.952Z,1.04
2023-01-29T00:40:10.062Z,1.04
2023-01-29T00:41:10.155Z,1.04
2023-01-29T00:42:10.329Z,1.04
2023-01-29T00:43:10.417Z,1.04
2023-01-29T00:44:10.612Z,1.04
2023-01-29T00:45:10.758Z,1.04
2023-01-29T00:46:11.009Z,1.04
2023-01-29T00:47:11.026Z,1.04
2023-01-29T00:48:11.136Z,1.04
2023-01-29T00:49:11.217Z,1.04
2023-01-29T00:50:11.383Z,1.04
2023-01-29T00:51:11.524Z,1.04
2023-01-29T00:52:11.673Z,1.04
2023-01-29T00:53:11.836Z,1.04
2023-01-29T00:54:11.979Z,1.04
2023-01-29T00:55:12.083Z,1.04
2023-01-29T00:56:12.185Z,1.04
2023-01-29T00:57:12.289Z,1.04
2023-01-29T00:58:12.433Z,1.04
2023-01-29T00:59:12.540Z,1.04
2023-01-29T01:00:12.690Z,1.04
2023-01-29T01:01:12.881Z,1.04
2023-01-29T01:02:12.958Z,1.04
2023-01-29T01:03:13.102Z,1.04
2023-01-29T01:04:13.188Z,1.04
2023-01-29T01:05:13.338Z,1.04
2023-01-29T01:06:13.452Z,1.04
2023-01-29T01:07:14.235Z,1.04
2023-01-29T01:08:13.699Z,1.04
2023-01-29T01:09:13.857Z,1.04
2023-01-29T01:10:14.225Z,1.04
2023-01-29T01:11:14.110Z,1.04
2023-01-29T01:12:14.200Z,1.04
2023-01-29T01:13:14.365Z,1.04
2023-01-29T01:14:14.461Z,1.04
2023-01-29T01:15:14.610Z,1.04
2023-01-29T01:16:14.779Z,1.04
2023-01-29T01:17:14.808Z,1.04
2023-01-29T01:18:14.917Z,1.04
2023-01-29T01:19:15.019Z,1.04
2023-01-29T01:20:15.433Z,1.04
2023-01-29T01:21:15.221Z,1.04
2023-01-29T01:22:15.318Z,1.04
2023-01-29T01:23:15.418Z,1.04
2023-01-29T01:24:15.575Z,1.04
2023-01-29T01:25:15.622Z,1.04
2023-01-29T01:26:15.778Z,1.04
2023-01-29T01:27:15.871Z,1.04
2023-01-29T01:28:16.599Z,1.04
2023-01-29T01:29:16.123Z,1.04
2023-01-29T01:30:16.618Z,1.04
2023-01-29T01:31:16.458Z,1.04
2023-01-29T01:32:16.491Z,1.04
2023-01-29T01:33:16.594Z,1.04
2023-01-29T01:34:16.694Z,1.04
2023-01-29T01:35:16.803Z,1.04
2023-01-29T01:36:16.936Z,1.04
2023-01-29T01:37:17.110Z,1.04
2023-01-29T01:38:17.250Z,1.04
2023-01-29T01:39:17.395Z,1.04
2023-01-29T01:40:17.751Z,1.04
2023-01-29T01:41:17.641Z,1.04
2023-01-29T01:42:17.801Z,1.04
2023-01-29T01:43:17.899Z,1.04
2023-01-29T01:44:18.009Z,1.04
2023-01-29T01:45:18.112Z,1.04
2023-01-29T01:46:18.204Z,1.04
2023-01-29T01:47:18.308Z,1.04
2023-01-29T01:48:18.412Z,1.04
2023-01-29T01:49:18.569Z,1.04
2023-01-29T01:50:18.880Z,1.04
2023-01-29T01:51:18.809Z,1.04
2023-01-29T01:52:18.909Z,1.04
2023-01-29T01:53:19.086Z,1.04
2023-01-29T01:54:19.211Z,1.04
2023-01-29T01:55:19.363Z,1.04
2023-01-29T01:56:19.466Z,1.04
2023-01-29T01:57:19.564Z,1.04
2023-01-29T01:58:19.675Z,1.04
2023-01-29T01:59:19.774Z,1.04
2023-01-29T02:00:19.923Z,1.04
2023-01-29T02:01:20.141Z,1.04
2023-01-29T02:02:20.230Z,1.04
2023-01-29T02:03:20.274Z,1.04
2023-01-29T02:04:20.424Z,1.04
2023-01-29T02:05:20.537Z,1.04
2023-01-29T02:06:20.634Z,1.04
2023-01-29T02:07:20.780Z,1.04
2023-01-29T02:08:20.931Z,1.04
2023-01-29T02:09:21.099Z,1.04
2023-01-29T02:10:21.244Z,1.04
2023-01-29T02:11:21.389Z,1.04
2023-01-29T02:12:21.519Z,1.04
2023-01-29T02:13:21.587Z,1.04
2023-01-29T02:14:21.698Z,1.04
2023-01-29T02:15:21.849Z,1.04
2023-01-29T02:16:21.974Z,1.04
2023-01-29T02:17:22.135Z,1.04
2023-01-29T02:18:22.190Z,1.04
2023-01-29T02:19:22.305Z,1.04
2023-01-29T02:20:22.451Z,1.04
2023-01-29T02:21:22.552Z,1.04
2023-01-29T02:22:22.663Z,1.04
2023-01-29T02:23:22.750Z,1.04
2023-01-29T02:24:23.015Z,1.04
2023-01-29T02:25:23.016Z,1.04
2023-01-29T02:26:23.107Z,1.04
2023-01-29T02:27:23.227Z,1.04
2023-01-29T02:28:23.304Z,1.04
2023-01-29T02:29:23.421Z,1.04
2023-01-29T02:30:23.519Z,1.04
2023-01-29T02:31:23.745Z,1.04
2023-01-29T02:32:23.827Z,1.04
2023-01-29T02:33:23.948Z,1.04
2023-01-29T02:34:24.085Z,1.04
2023-01-29T02:35:24.267Z,1.04
2023-01-29T02:36:24.346Z,1.04
2023-01-29T02:37:24.501Z,1.04
2023-01-29T02:38:24.627Z,1.04
2023-01-29T02:39:24.745Z,1.04
2023-01-29T02:40:24.894Z,1.04
2023-01-29T02:41:25.033Z,1.04
2023-01-29T02:42:25.149Z,1.04
2023-01-29T02:43:25.249Z,1.04
2023-01-29T02:44:25.383Z,1.04
2023-01-29T02:45:25.536Z,1.04
2023-01-29T02:46:25.640Z,1.04
2023-01-29T02:47:25.736Z,1.04
2023-01-29T02:48:25.840Z,1.04
2023-01-29T02:49:25.988Z,1.04
2023-01-29T02:50:26.103Z,1.04
2023-01-29T02:51:26.244Z,1.04
2023-01-29T02:52:26.403Z,1.04
2023-01-29T02:53:26.515Z,1.04
2023-01-29T02:54:26.657Z,1.04
2023-01-29T02:55:26.751Z,1.04
2023-01-29T02:56:26.872Z,1.04
2023-01-29T02:57:27.014Z,1.04
2023-01-29T02:58:27.103Z,1.04
2023-01-29T02:59:27.252Z,1.04
2023-01-29T03:00:27.357Z,1.04
2023-01-29T03:01:27.465Z,1.04
2023-01-29T03:02:27.586Z,1.04
2023-01-29T03:03:27.725Z,1.04
2023-01-29T03:04:27.822Z,1.04
2023-01-29T03:05:27.913Z,1.04
2023-01-29T03:06:28.067Z,1.04
2023-01-29T03:07:28.211Z,1.04
2023-01-29T03:08:28.370Z,1.04
2023-01-29T03:09:28.472Z,1.04
2023-01-29T03:10:28.579Z,1.04
2023-01-29T03:11:28.678Z,1.04
2023-01-29T03:12:28.769Z,1.04
2023-01-29T03:13:28.870Z,1.04
2023-01-29T03:14:28.974Z,1.04
2023-01-29T03:15:29.142Z,1.04
2023-01-29T03:16:29.278Z,1.04
2023-01-29T03:17:29.329Z,1.04
2023-01-29T03:18:29.428Z,1.04
2023-01-29T03:19:29.532Z,1.04
2023-01-29T03:20:29.727Z,1.04
2023-01-29T03:21:29.795Z,1.04
2023-01-29T03:22:29.883Z,1.04
2023-01-29T03:23:29.995Z,1.04
2023-01-29T03:24:30.146Z,1.04
2023-01-29T03:25:30.249Z,1.04
2023-01-29T03:26:30.344Z,1.04
2023-01-29T03:27:30.456Z,1.04
2023-01-29T03:28:30.597Z,1.04
2023-01-29T03:29:30.705Z,1.04
2023-01-29T03:30:30.854Z,1.04
2023-01-29T03:31:31.116Z,1.04
2023-01-29T03:32:31.105Z,1.04
2023-01-29T03:33:31.200Z,1.04
2023-01-29T03:34:31.348Z,1.04
2023-01-29T03:35:31.467Z,1.04
2023-01-29T03:36:31.611Z,1.04
2023-01-29T03:37:31.766Z,1.04
2023-01-29T03:38:31.916Z,1.04
2023-01-29T03:39:32.018Z,1.04
2023-01-29T03:40:32.122Z,1.04
2023-01-29T03:41:32.224Z,1.04
2023-01-29T03:42:32.369Z,1.04
2023-01-29T03:43:32.519Z,1.04
2023-01-29T03:44:32.636Z,1.04
2023-01-29T03:45:32.750Z,1.04
2023-01-29T03:46:32.866Z,1.04
2023-01-29T03:47:33.028Z,1.04
2023-01-29T03:48:33.138Z,1.04
2023-01-29T03:49:33.226Z,1.04
2023-01-29T03:50:33.326Z,1.04
2023-01-29T03:51:33.426Z,1.04
2023-01-29T03:52:33.530Z,1.04
2023-01-29T03:53:33.688Z,1.04
2023-01-29T03:54:33.783Z,1.04
2023-01-29T03:55:33.886Z,1.04
2023-01-29T03:56:34.044Z,1.04
2023-01-29T03:57:34.192Z,1.04
2023-01-29T03:58:34.332Z,1.04
2023-01-29T03:59:34.493Z,1.04
2023-01-29T04:00:34.587Z,1.04
2023-01-29T04:01:34.748Z,1.04
2023-01-29T04:02:34.904Z,1.04
2023-01-29T04:03:35.042Z,1.04
2023-01-29T04:04:35.139Z,1.04
2023-01-29T04:05:35.248Z,1.04
2023-01-29T04:06:35.358Z,1.04
2023-01-29T04:07:35.453Z,1.04
2023-01-29T04:08:35.551Z,1.04
2023-01-29T04:09:35.659Z,1.04
2023-01-29T04:10:35.833Z,1.04
2023-01-29T04:11:35.955Z,1.04
2023-01-29T04:12:36.065Z,1.04
2023-01-29T04:13:36.163Z,1.04
2023-01-29T04:14:36.309Z,1.04
2023-01-29T04:15:36.418Z,1.04
2023-01-29T04:16:36.706Z,1.04
2023-01-29T04:17:36.612Z,1.04
2023-01-29T04:18:36.755Z,1.04
2023-01-29T04:19:36.925Z,1.04
2023-01-29T04:20:37.017Z,1.04
2023-01-29T04:21:37.181Z,1.04
2023-01-29T04:22:37.319Z,1.04
2023-01-29T04:23:37.423Z,1.04
2023-01-29T04:24:37.523Z,1.04
2023-01-29T04:25:37.629Z,1.04
2023-01-29T04:26:37.727Z,1.04
2023-01-29T04:27:37.880Z,1.04
2023-01-29T04:28:38.041Z,1.04
2023-01-29T04:29:38.200Z,1.04
2023-01-29T04:30:38.371Z,1.04
2023-01-29T04:31:38.594Z,1.04
2023-01-29T04:32:38.594Z,1.04
2023-01-29T04:33:38.685Z,1.04
2023-01-29T04:34:38.859Z,1.04
2023-01-29T04:35:38.947Z,1.04
2023-01-29T04:36:39.062Z,1.04
2023-01-29T04:37:39.190Z,1.04
2023-01-29T04:38:39.303Z,1.04
2023-01-29T04:39:39.399Z,1.04
2023-01-29T04:40:39.555Z,1.04
2023-01-29T04:41:39.700Z,1.04
2023-01-29T04:42:39.806Z,1.04
2023-01-29T04:43:39.952Z,1.04
2023-01-29T04:44:40.051Z,1.04
2023-01-29T04:45:40.153Z,1.04
2023-01-29T04:46:40.314Z,1.04
2023-01-29T04:47:40.461Z,1.04
2023-01-29T04:48:40.575Z,1.04
2023-01-29T04:49:40.667Z,1.04
2023-01-29T04:50:40.762Z,1.04
2023-01-29T04:51:40.915Z,1.04
2023-01-29T04:52:41.013Z,1.04
2023-01-29T04:53:41.135Z,1.04
2023-01-29T04:54:41.221Z,1.04
2023-01-29T04:55:41.387Z,1.04
2023-01-29T04:56:41.525Z,1.04
2023-01-29T04:57:41.624Z,1.04
2023-01-29T04:58:41.769Z,1.04
2023-01-29T04:59:41.887Z,1.04
2023-01-29T05:00:42.032Z,1.04
2023-01-29T05:01:42.174Z,1.04
2023-01-29T05:02:42.254Z,1.04
2023-01-29T05:03:42.387Z,1.04
2023-01-29T05:04:42.487Z,1.04
2023-01-29T05:05:42.692Z,1.04
2023-01-29T05:06:42.748Z,1.04
2023-01-29T05:07:42.917Z,1.04
2023-01-29T05:08:43.041Z,1.04
2023-01-29T05:09:43.202Z,1.04
2023-01-29T05:10:43.342Z,1.04
2023-01-29T05:11:43.449Z,1.04
2023-01-29T05:12:43.594Z,1.04
2023-01-29T05:13:43.707Z,1.04
2023-01-29T05:14:43.819Z,1.04
2023-01-29T05:15:43.968Z,1.04
2023-01-29T05:16:44.109Z,1.04
2023-01-29T05:17:44.210Z,1.04
2023-01-29T05:18:44.319Z,1.04
2023-01-29T05:19:44.447Z,1.04
2023-01-29T05:20:44.562Z,1.04
2023-01-29T05:21:44.674Z,1.04
2023-01-29T05:22:44.764Z,1.04
2023-01-29T05:23:44.910Z,1.04
2023-01-29T05:24:45.071Z,1.04
2023-01-29T05:25:45.165Z,1.04
2023-01-29T05:26:45.319Z,1.04
2023-01-29T05:27:45.473Z,1.04
2023-01-29T05:28:45.619Z,1.04
2023-01-29T05:29:45.722Z,1.04
2023-01-29T05:30:45.865Z,1.04
2023-01-29T05:31:46.059Z,1.04
2023-01-29T05:32:46.069Z,1.04
2023-01-29T05:33:46.192Z,1.04
2023-01-29T05:34:46.277Z,1.04
2023-01-29T05:35:46.387Z,1.04
2023-01-29T05:36:46.485Z,1.04
2023-01-29T05:37:46.586Z,1.04
2023-01-29T05:38:46.735Z,1.04
2023-01-29T05:39:46.846Z,1.04
2023-01-29T05:40:46.941Z,1.04
2023-01-29T05:41:47.095Z,1.04
2023-01-29T05:42:47.187Z,1.04
2023-01-29T05:43:47.299Z,1.04
2023-01-29T05:44:47.513Z,1.04
2023-01-29T05:45:47.550Z,1.04
2023-01-29T05:46:47.720Z,1.04
2023-01-29T05:47:47.802Z,1.04
2023-01-29T05:48:47.913Z,1.04
2023-01-29T05:49:47.995Z,1.04
2023-01-29T05:50:48.096Z,1.04
2023-01-29T05:51:48.247Z,1.04
2023-01-29T05:52:48.393Z,1.04
2023-01-29T05:53:48.545Z,1.04
2023-01-29T05:54:48.649Z,1.04
2023-01-29T05:55:48.804Z,1.04
2023-01-29T05:56:48.898Z,1.04
2023-01-29T05:57:49.052Z,1.04
2023-01-29T05:58:49.202Z,1.04
2023-01-29T05:59:49.373Z,1.04
2023-01-29T06:00:49.460Z,1.04
2023-01-29T06:01:49.648Z,1.04
2023-01-29T06:02:49.811Z,1.04
2023-01-29T06:03:49.918Z,1.04
2023-01-29T06:04:50.024Z,1.04
2023-01-29T06:05:50.172Z,2
2023-01-29T06:06:50.324Z,2
2023-01-29T06:07:50.477Z,2
2023-01-29T06:08:50.629Z,2
2023-01-29T06:09:50.727Z,2
2023-01-29T06:10:50.834Z,3.04
2023-01-29T06:11:50.923Z,3.04
2023-01-29T06:12:51.030Z,4
2023-01-29T06:13:51.149Z,4
2023-01-29T06:14:51.232Z,5.04
2023-01-29T06:15:51.390Z,6
2023-01-29T06:16:51.437Z,7.04
2023-01-29T06:17:51.545Z,8
2023-01-29T06:18:51.648Z,9.04
2023-01-29T06:19:51.803Z,11.04
2023-01-29T06:20:51.907Z,12
2023-01-29T06:21:51.997Z,15.04
2023-01-29T06:22:52.163Z,17.04
2023-01-29T06:23:52.255Z,20
2023-01-29T06:24:52.427Z,23.04
2023-01-29T06:25:52.509Z,27.04
2023-01-29T06:26:52.602Z,31.04
2023-01-29T06:27:52.755Z,37.04
2023-01-29T06:28:52.859Z,44
2023-01-29T06:29:53.010Z,54
2023-01-29T06:30:53.152Z,63.04
2023-01-29T06:31:53.375Z,74
2023-01-29T06:32:53.364Z,90
2023-01-29T06:33:53.464Z,61.04
2023-01-29T06:34:53.617Z,71.04
2023-01-29T06:35:53.716Z,82
2023-01-29T06:36:53.833Z,99.04
2023-01-29T06:37:53.972Z,117.04
2023-01-29T06:38:54.081Z,133.04
2023-01-29T06:39:54.166Z,154
2023-01-29T06:40:54.268Z,173.12
2023-01-29T06:41:54.375Z,191.04
2023-01-29T06:42:54.524Z,217.12
2023-01-29T06:43:54.667Z,248
2023-01-29T06:44:54.786Z,280
2023-01-29T06:45:54.903Z,311.04
2023-01-29T06:46:54.983Z,348.16
2023-01-29T06:47:55.086Z,376
2023-01-29T06:48:55.183Z,405.12
2023-01-29T06:49:55.281Z,432
2023-01-29T06:50:55.391Z,468.16
2023-01-29T06:51:55.499Z,499.2
2023-01-29T06:52:55.589Z,532.16
2023-01-29T06:53:55.701Z,568
2023-01-29T06:54:55.835Z,604.16
2023-01-29T06:55:55.955Z,644.16
2023-01-29T06:56:56.047Z,687.36
2023-01-29T06:57:56.201Z,737.28
2023-01-29T06:58:56.310Z,781.44
2023-01-29T06:59:56.452Z,823.04
2023-01-29T07:00:56.624Z,876.16
2023-01-29T07:01:56.744Z,924.16
2023-01-29T07:02:56.859Z,983.04
2023-01-29T07:03:56.954Z,1032.32
2023-01-29T07:04:57.085Z,1077.12
2023-01-29T07:05:57.205Z,1118.08
2023-01-29T07:06:57.362Z,1154.56
2023-01-29T07:07:57.508Z,1212.16
2023-01-29T07:08:57.635Z,1265.28
2023-01-29T07:09:57.783Z,1374.72
2023-01-29T07:10:57.868Z,1479.68
2023-01-29T07:11:57.984Z,1560.32
2023-01-29T07:12:58.118Z,1649.92
2023-01-29T07:13:58.254Z,1742.08
2023-01-29T07:14:58.321Z,1858.56
2023-01-29T07:15:58.443Z,1991.68
2023-01-29T07:16:58.527Z,2076.16
2023-01-29T07:17:58.678Z,2096.64
2023-01-29T07:18:58.777Z,2149.12
2023-01-29T07:19:58.878Z,2213.12
2023-01-29T07:20:59.032Z,2190.08
2023-01-29T07:21:59.141Z,2097.92
2023-01-29T07:22:59.234Z,2073.6
2023-01-29T07:23:59.359Z,2108.16
2023-01-29T07:24:59.498Z,2117.12
2023-01-29T07:25:59.636Z,2115.84
2023-01-29T07:26:59.744Z,2163.2
2023-01-29T07:28:00.929Z,2184.96
2023-01-29T07:28:59.950Z,2071.04
2023-01-29T07:30:00.127Z,1973.76
2023-01-29T07:31:00.260Z,1973.76
2023-01-29T07:32:00.472Z,2000.64
2023-01-29T07:33:00.565Z,2071.04
2023-01-29T07:34:00.652Z,2197.76
2023-01-29T07:35:00.801Z,2342.4
2023-01-29T07:36:00.954Z,2429.44
2023-01-29T07:37:01.102Z,2489.6
2023-01-29T07:38:01.205Z,2579.2
2023-01-29T07:39:01.301Z,2711.04
2023-01-29T07:40:01.474Z,2836.48
2023-01-29T07:41:03.147Z,2982.4
2023-01-29T07:42:01.646Z,3092.48
2023-01-29T07:43:01.806Z,3251.2
2023-01-29T07:44:01.967Z,3397.12
2023-01-29T07:45:02.118Z,3468.8
2023-01-29T07:46:02.378Z,3614.72
2023-01-29T07:47:02.364Z,3742.72
2023-01-29T07:48:02.469Z,3852.8
2023-01-29T07:49:02.583Z,3944.96
2023-01-29T07:50:02.730Z,3983.36
2023-01-29T07:51:02.876Z,4006.4
2023-01-29T07:52:03.031Z,4042.24
2023-01-29T07:53:03.128Z,4134.4
2023-01-29T07:54:03.229Z,4272.64
2023-01-29T07:55:03.323Z,4528.64
2023-01-29T07:56:03.445Z,4736
2023-01-29T07:57:03.529Z,4951.04
2023-01-29T07:58:03.643Z,5201.92
2023-01-29T07:59:03.735Z,5529.6
2023-01-29T08:00:03.895Z,5785.6
2023-01-29T08:01:04.082Z,5990.4
2023-01-29T08:02:04.268Z,6190.08
2023-01-29T08:03:04.349Z,6446.08
2023-01-29T08:04:04.439Z,6666.24
2023-01-29T08:05:04.593Z,6702.08
2023-01-29T08:06:04.708Z,6727.68
2023-01-29T08:07:04.809Z,7009.28
2023-01-29T08:08:07.140Z,7193.6
2023-01-29T08:09:05.020Z,7464.96
2023-01-29T08:10:05.151Z,7720.96
2023-01-29T08:11:05.255Z,7895.04
2023-01-29T08:12:05.407Z,7987.2
2023-01-29T08:13:05.509Z,8161.28
2023-01-29T08:14:05.616Z,7956.48
2023-01-29T08:15:05.752Z,7715.84
2023-01-29T08:16:05.928Z,7674.88
2023-01-29T08:17:05.961Z,7485.44
2023-01-29T08:18:06.130Z,7336.96
2023-01-29T08:19:06.212Z,7127.04
2023-01-29T08:20:06.366Z,6958.08
2023-01-29T08:21:06.474Z,6850.56
2023-01-29T08:22:06.574Z,6789.12
2023-01-29T08:23:06.688Z,6748.16
2023-01-29T08:24:06.820Z,6686.72
2023-01-29T08:25:11.810Z,6630.4
2023-01-29T08:26:07.069Z,6594.56
2023-01-29T08:27:07.177Z,6558.72
2023-01-29T08:28:07.288Z,6512.64
2023-01-29T08:29:07.432Z,6394.88
2023-01-29T08:30:07.537Z,6287.36
2023-01-29T08:31:07.649Z,6256.64
2023-01-29T08:32:07.728Z,6292.48
2023-01-29T08:33:07.840Z,6379.52
2023-01-29T08:34:07.940Z,6456.32
2023-01-29T08:35:08.039Z,6528
2023-01-29T08:36:08.193Z,6574.08
2023-01-29T08:37:08.337Z,6615.04
2023-01-29T08:38:08.503Z,6625.28
2023-01-29T08:39:08.597Z,6661.12
2023-01-29T08:40:08.755Z,6676.48
2023-01-29T08:41:08.850Z,6671.36
2023-01-29T08:42:08.996Z,6620.16
2023-01-29T08:43:09.639Z,6538.24
2023-01-29T08:44:09.253Z,6461.44
2023-01-29T08:45:09.347Z,6430.72
2023-01-29T08:46:09.592Z,6389.76
2023-01-29T08:47:09.605Z,6353.92
2023-01-29T08:48:09.771Z,6323.2
2023-01-29T08:49:09.857Z,6266.88
2023-01-29T08:50:10.008Z,6195.2
2023-01-29T08:51:10.161Z,6133.76
2023-01-29T08:52:10.265Z,6036.48
2023-01-29T08:53:10.417Z,5995.52
2023-01-29T08:54:10.525Z,5985.28
2023-01-29T08:55:10.614Z,6016
2023-01-29T08:56:10.769Z,6056.96
2023-01-29T08:57:10.883Z,6118.4
2023-01-29T08:58:11.033Z,6236.16
2023-01-29T08:59:11.123Z,6369.28
2023-01-29T09:00:11.275Z,6512.64
2023-01-29T09:01:11.413Z,6748.16
2023-01-29T09:02:11.501Z,7029.76
2023-01-29T09:03:11.585Z,7285.76
2023-01-29T09:04:11.691Z,7526.4
2023-01-29T09:05:11.833Z,7649.28
2023-01-29T09:06:11.924Z,7787.52
2023-01-29T09:07:12.043Z,7879.68
2023-01-29T09:08:12.130Z,7941.12
2023-01-29T09:09:12.284Z,7961.6
2023-01-29T09:10:12.389Z,7925.76
2023-01-29T09:11:12.483Z,7808
2023-01-29T09:12:12.585Z,7715.84
2023-01-29T09:13:12.740Z,7623.68
2023-01-29T09:14:12.912Z,7541.76
2023-01-29T09:15:13.003Z,7505.92
2023-01-29T09:16:13.105Z,7552
2023-01-29T09:17:13.198Z,7690.24
2023-01-29T09:18:13.316Z,7879.68
2023-01-29T09:19:13.451Z,8007.68
2023-01-29T09:20:13.570Z,8053.76
2023-01-29T09:21:13.652Z,8094.72
2023-01-29T09:22:13.753Z,8166.4
2023-01-29T09:23:13.921Z,8253.44
2023-01-29T09:24:14.056Z,8320
2023-01-29T09:25:14.581Z,8407.04
2023-01-29T09:26:14.310Z,8509.439
2023-01-29T09:27:14.374Z,8611.84
2023-01-29T09:28:14.517Z,8627.2
2023-01-29T09:29:14.612Z,8565.76
2023-01-29T09:30:14.771Z,8427.52
2023-01-29T09:31:15.064Z,8360.96
2023-01-29T09:32:16.832Z,8407.04
2023-01-29T09:33:15.102Z,8494.08
2023-01-29T09:34:15.219Z,8540.16
2023-01-29T09:35:15.589Z,8565.76
2023-01-29T09:36:15.428Z,8550.399
2023-01-29T09:37:15.525Z,8586.24
2023-01-29T09:38:15.622Z,8637.439
2023-01-29T09:39:15.735Z,8688.64
2023-01-29T09:40:15.826Z,8780.8
2023-01-29T09:41:15.984Z,8903.68
2023-01-29T09:42:16.081Z,8985.6
2023-01-29T09:43:16.229Z,9062.399
2023-01-29T09:44:16.385Z,9036.8
2023-01-29T09:45:16.911Z,8903.68
2023-01-29T09:46:16.711Z,8698.88
2023-01-29T09:47:16.741Z,8514.56
2023-01-29T09:48:16.854Z,8289.28
2023-01-29T09:49:16.947Z,8140.8
2023-01-29T09:50:18.975Z,8028.16
2023-01-29T09:51:17.159Z,7976.96
2023-01-29T09:52:17.291Z,7976.96
2023-01-29T09:53:17.402Z,7976.96
2023-01-29T09:54:17.554Z,7987.2
2023-01-29T09:55:17.969Z,7992.32
2023-01-29T09:56:17.805Z,8012.8
2023-01-29T09:57:17.908Z,8084.48
2023-01-29T09:58:18.009Z,8212.48
2023-01-29T09:59:18.116Z,8437.76
2023-01-29T10:00:18.268Z,8663.04
2023-01-29T10:01:18.453Z,8888.319
2023-01-29T10:02:18.552Z,9231.359
2023-01-29T10:03:18.585Z,9431.04
2023-01-29T10:04:18.765Z,9523.2
2023-01-29T10:05:19.188Z,9553.92
2023-01-29T10:06:19.026Z,9600
2023-01-29T10:07:19.174Z,9707.52
2023-01-29T10:08:19.313Z,9856
2023-01-29T10:09:19.446Z,9963.52
2023-01-29T10:10:19.550Z,10147.84
2023-01-29T10:11:19.634Z,10301.439
2023-01-29T10:12:19.739Z,10516.479
2023-01-29T10:13:19.832Z,10874.88
2023-01-29T10:14:19.993Z,11202.56
2023-01-29T10:15:20.074Z,11571.2
2023-01-29T10:16:20.194Z,12021.76
2023-01-29T10:17:20.410Z,12421.12
2023-01-29T10:18:20.501Z,12728.319
2023-01-29T10:19:20.590Z,13619.199
2023-01-29T10:20:20.687Z,13905.92
2023-01-29T10:21:20.788Z,14141.439
2023-01-29T10:22:20.945Z,14202.88
2023-01-29T10:23:21.033Z,14192.64
2023-01-29T10:24:21.131Z,14131.199
2023-01-29T10:25:21.289Z,14131.199
2023-01-29T10:26:21.409Z,14120.96
2023-01-29T10:27:21.509Z,14192.64
2023-01-29T10:28:21.615Z,14274.56
2023-01-29T10:29:21.747Z,14407.68
2023-01-29T10:30:21.863Z,14561.279
2023-01-29T10:31:22.122Z,14704.64
2023-01-29T10:32:22.165Z,14817.279
2023-01-29T10:33:22.311Z,14899.199
2023-01-29T10:34:22.413Z,14858.239
2023-01-29T10:35:22.508Z,14796.8
2023-01-29T10:36:22.677Z,14602.239
2023-01-29T10:37:22.817Z,14356.479
2023-01-29T10:38:22.956Z,14080
2023-01-29T10:39:23.065Z,13936.64
2023-01-29T10:40:23.240Z,13875.199
2023-01-29T10:41:23.318Z,13967.359
2023-01-29T10:42:23.467Z,14202.88
2023-01-29T10:43:23.565Z,14305.279
2023-01-29T10:44:23.677Z,14315.52
2023-01-29T10:45:23.771Z,14397.439
2023-01-29T10:46:23.930Z,14182.399
2023-01-29T10:47:24.077Z,14233.6
2023-01-29T10:48:24.137Z,14499.84
2023-01-29T10:49:24.222Z,14684.16
2023-01-29T10:50:24.331Z,14899.199
2023-01-29T10:51:24.485Z,15042.56
2023-01-29T10:52:24.578Z,15124.479
2023-01-29T10:53:24.683Z,15288.319
2023-01-29T10:54:24.783Z,15534.08
2023-01-29T10:55:24.893Z,15677.439
2023-01-29T10:56:24.999Z,15749.12
2023-01-29T10:57:25.085Z,15831.04
2023-01-29T10:58:25.247Z,16005.12
2023-01-29T10:59:25.401Z,16087.04
2023-01-29T11:00:25.495Z,16179.199
2023-01-29T11:01:25.782Z,16414.72
2023-01-29T11:02:25.784Z,16660.48
2023-01-29T11:03:28.187Z,16814.08
2023-01-29T11:04:26.008Z,17070.08
2023-01-29T11:05:26.119Z,17418.24
2023-01-29T11:06:26.205Z,17664
2023-01-29T11:07:26.357Z,17735.68
2023-01-29T11:08:26.512Z,17602.56
2023-01-29T11:09:26.648Z,17346.56
2023-01-29T11:10:26.755Z,17059.84
2023-01-29T11:11:26.913Z,16855.04
2023-01-29T11:12:27.022Z,16537.6
2023-01-29T11:13:27.116Z,16363.52
2023-01-29T11:14:27.292Z,16384
2023-01-29T11:15:27.437Z,16496.64
2023-01-29T11:16:27.536Z,16506.88
2023-01-29T11:17:27.693Z,16619.52
2023-01-29T11:18:27.781Z,16680.96
2023-01-29T11:19:27.936Z,16588.8
2023-01-29T11:20:28.085Z,16384
2023-01-29T11:21:28.178Z,16179.199
2023-01-29T11:22:28.294Z,15984.64
2023-01-29T11:23:28.432Z,15912.96
2023-01-29T11:24:28.589Z,15841.279
2023-01-29T11:25:28.737Z,16066.56
2023-01-29T11:26:28.881Z,15923.199
2023-01-29T11:27:28.952Z,16158.72
2023-01-29T11:28:29.037Z,15892.479
2023-01-29T11:29:29.141Z,15841.279
2023-01-29T11:30:29.291Z,15677.439
2023-01-29T11:31:29.510Z,15575.04
2023-01-29T11:32:29.499Z,15503.359
2023-01-29T11:33:29.643Z,15728.64
2023-01-29T11:34:29.799Z,16128
2023-01-29T11:35:29.897Z,16691.2
2023-01-29T11:36:30.003Z,17111.04
2023-01-29T11:37:30.154Z,17664
2023-01-29T11:38:30.302Z,18124.8
2023-01-29T11:39:30.431Z,18821.12
2023-01-29T11:40:30.611Z,19138.56
2023-01-29T11:41:30.729Z,19630.08
2023-01-29T11:42:30.811Z,21032.96
2023-01-29T11:43:30.954Z,21708.8
2023-01-29T11:44:31.110Z,22589.44
2023-01-29T11:45:31.216Z,24432.64
2023-01-29T11:46:31.409Z,24780.8
2023-01-29T11:47:31.530Z,24391.68
2023-01-29T11:48:31.622Z,25047.04
2023-01-29T11:49:31.773Z,27648
2023-01-29T11:50:31.865Z,30945.28
2023-01-29T11:51:32.011Z,31682.56
2023-01-29T11:52:32.096Z,32911.36
2023-01-29T11:53:32.167Z,32583.68
2023-01-29T11:54:32.271Z,31969.28
2023-01-29T11:55:41.093Z,32911.36
2023-01-29T11:56:32.505Z,34324.48
2023-01-29T11:57:32.625Z,31436.8
2023-01-29T11:58:32.785Z,30699.52
2023-01-29T11:59:32.847Z,29655.04
2023-01-29T12:00:32.989Z,29081.6
2023-01-29T12:01:33.087Z,28958.72
2023-01-29T12:02:33.185Z,27668.48
2023-01-29T12:03:33.371Z,27770.88
2023-01-29T12:04:33.483Z,28405.76
2023-01-29T12:05:33.653Z,28999.68
2023-01-29T12:06:33.744Z,30412.8
2023-01-29T12:07:33.892Z,29532.16
2023-01-29T12:08:33.991Z,32153.6
2023-01-29T12:09:34.148Z,31825.92
2023-01-29T12:10:34.256Z,35635.2
2023-01-29T12:11:34.362Z,34713.6
2023-01-29T12:12:34.464Z,35471.36
2023-01-29T12:13:34.609Z,35450.88
2023-01-29T12:14:34.748Z,35942.4
2023-01-29T12:15:34.893Z,31068.16
2023-01-29T12:16:35.125Z,30474.24
2023-01-29T12:17:35.112Z,32256
2023-01-29T12:18:35.223Z,32993.28
2023-01-29T12:19:35.319Z,28733.44
2023-01-29T12:20:35.462Z,27074.56
2023-01-29T12:21:35.559Z,25088
2023-01-29T12:22:35.665Z,26152.96
2023-01-29T12:23:35.789Z,28241.92
2023-01-29T12:24:35.873Z,32911.36
2023-01-29T12:25:36.020Z,24842.24
2023-01-29T12:26:36.208Z,23080.96
2023-01-29T12:27:36.211Z,20510.72
2023-01-29T12:28:36.322Z,20910.08
2023-01-29T12:29:36.435Z,23285.76
2023-01-29T12:30:36.600Z,25128.96
2023-01-29T12:31:36.721Z,24883.2
2023-01-29T12:32:36.828Z,22200.32
2023-01-29T12:33:36.932Z,19589.12
2023-01-29T12:34:37.080Z,18739.2
2023-01-29T12:35:37.185Z,18524.16
2023-01-29T12:36:37.336Z,18728.96
2023-01-29T12:37:37.433Z,19005.44
2023-01-29T12:38:37.537Z,18667.52
2023-01-29T12:39:37.691Z,18114.56
2023-01-29T12:40:37.790Z,17930.24
2023-01-29T12:41:37.973Z,18032.64
2023-01-29T12:42:38.050Z,18022.4